Aérodrome :
LOGIN :

S'inscrire | Disclaimer

   EN    FR    IT 

 










Légende :    VFR   VFR Marginal   IFR   IFR Intensif   IFR Très Intensif
Visi : 
Plafond : 
>= 8 km
>= 3000ft
5 à 8 km
1000 à 3000 ft
1500m à 5 km
500 à 1000 ft
800 à 1500m
200 à 500 ft
< 800m
< 200 ft
Symboles :   Orages  Brouillard  Fortes neiges  Fortes précipitations  Vent > 20 kt
SIGMETs :   Divers  Orages  Givrage  Turbulence  Onde Orograph.  Cendres Volcan.






- Altitude de l'aérodrome : 699 ft
- Code IATA : PAD


EDLP - Paderborn Lippstadt

DERNIER METAR :
  • 081220Z 31006KT 240V020 CAVOK 34/09 Q1020

METARs EXPIRÉS :
  • 081150Z VRB05KT CAVOK 33/09 Q1020
  • 081120Z 31006KT 260V070 CAVOK 32/09 Q1020
  • 081050Z 35006KT 270V030 CAVOK 32/10 Q1020
  • 081020Z VRB04KT CAVOK 33/10 Q1020
  • 080950Z VRB04KT CAVOK 32/11 Q1020
  • 080920Z 29004KT 220V360 CAVOK 31/10 Q1020

TAF TAF EDLP
Valide du 08 à 12h jusqu'au 09 à 12h UTC


081100Z 0812/0912 VRB03KT CAVOK
BECMG 0812/0814 36006KT
BECMG 0819/0822 VRB03KT
BECMG 0907/0910 04007KT



MET'MAP, la Météo Aéronautique d'un coup d'oeil ! - Copyright ORBIFLY Décembre 2007 - Disclaimer

ORBIFLY MET'MAP TEAM :

Programmation & Développement : Alexandra Zaïnal
Sur une idée originale de : Baudouin d'Aumeries
Assistance à la programmation : Marc-Olivier Méhu
Soutien technique & logistique : Manuel Goepfert

Contact : metmap@orbifly.com




SOURCES & CREDITS :

   NOAA